createdAt,value
2019-03-21T00:00:09.977Z,21.40
2019-03-21T00:01:09.950Z,22.00
2019-03-21T00:02:09.946Z,22.40
2019-03-21T00:03:10.093Z,23.40
2019-03-21T00:04:09.977Z,21.40
2019-03-21T00:05:09.991Z,21.40
2019-03-21T00:06:09.992Z,22.50
2019-03-21T00:07:09.981Z,22.60
2019-03-21T00:08:09.977Z,22.30
2019-03-21T00:09:09.998Z,23.30
2019-03-21T00:10:10.114Z,29.90
2019-03-21T00:11:10.011Z,23.10
2019-03-21T00:12:10.009Z,21.70
2019-03-21T00:13:10.039Z,22.40
2019-03-21T00:14:10.026Z,23.40
2019-03-21T00:15:10.043Z,21.80
2019-03-21T00:16:10.036Z,22.90
2019-03-21T00:17:10.090Z,23.10
2019-03-21T00:18:10.057Z,24.90
2019-03-21T00:19:10.074Z,23.80
2019-03-21T00:20:10.075Z,23.40
2019-03-21T00:21:10.069Z,22.60
2019-03-21T00:22:10.127Z,22.20
2019-03-21T00:23:10.094Z,23.10
2019-03-21T00:24:10.115Z,23.40
2019-03-21T00:25:10.096Z,22.60
2019-03-21T00:26:10.131Z,24.10
2019-03-21T00:27:10.116Z,23.20
2019-03-21T00:28:10.128Z,23.60
2019-03-21T00:29:10.131Z,24.70
2019-03-21T00:30:10.138Z,25.70
2019-03-21T00:31:10.140Z,23.50
2019-03-21T00:32:10.150Z,23.70
2019-03-21T00:33:10.172Z,23.30
2019-03-21T00:34:10.162Z,24.20
2019-03-21T00:35:10.173Z,23.20
2019-03-21T00:36:10.232Z,25.10
2019-03-21T00:37:10.171Z,25.20
2019-03-21T00:38:10.196Z,25.10
2019-03-21T00:39:10.224Z,26.00
2019-03-21T00:40:10.312Z,25.90
2019-03-21T00:41:10.191Z,26.00
2019-03-21T00:42:10.236Z,26.90
2019-03-21T00:43:10.202Z,25.50
2019-03-21T00:44:17.777Z,26.70
2019-03-21T00:45:10.288Z,26.70
2019-03-21T00:46:10.220Z,26.30
2019-03-21T00:47:10.230Z,26.00
2019-03-21T00:48:10.254Z,25.70
2019-03-21T00:49:10.495Z,27.50
2019-03-21T00:50:10.261Z,26.90
2019-03-21T00:51:10.301Z,26.30
2019-03-21T00:52:10.308Z,26.60
2019-03-21T00:53:10.255Z,25.80
2019-03-21T00:54:10.268Z,25.80
2019-03-21T00:55:10.300Z,27.20
2019-03-21T00:56:10.309Z,26.00
2019-03-21T00:57:10.367Z,26.10
2019-03-21T00:58:10.483Z,26.40
2019-03-21T00:59:10.355Z,26.10
2019-03-21T01:00:10.331Z,27.00
2019-03-21T01:01:10.311Z,25.30
2019-03-21T01:02:10.328Z,26.50
2019-03-21T01:03:10.412Z,25.40
2019-03-21T01:04:10.331Z,25.20
2019-03-21T01:05:10.343Z,26.10
2019-03-21T01:06:10.342Z,26.20
2019-03-21T01:07:10.352Z,25.90
2019-03-21T01:08:10.366Z,25.80
2019-03-21T01:09:10.416Z,25.80
2019-03-21T01:10:10.400Z,26.90
2019-03-21T01:11:10.379Z,26.60
2019-03-21T01:12:10.384Z,26.60
2019-03-21T01:13:10.393Z,27.20
2019-03-21T01:14:10.408Z,25.60
2019-03-21T01:15:10.449Z,25.60
2019-03-21T01:16:10.412Z,26.90
2019-03-21T01:17:10.410Z,25.60
2019-03-21T01:18:10.419Z,26.50
2019-03-21T01:19:10.429Z,25.80
2019-03-21T01:20:10.436Z,26.00
2019-03-21T01:21:10.455Z,25.50
2019-03-21T01:22:10.453Z,25.90
2019-03-21T01:23:10.447Z,25.80
2019-03-21T01:24:10.452Z,26.10
2019-03-21T01:25:10.454Z,27.10
2019-03-21T01:26:10.505Z,26.40
2019-03-21T01:27:10.469Z,25.90
2019-03-21T01:28:10.590Z,25.90
2019-03-21T01:29:10.497Z,26.40
2019-03-21T01:30:10.502Z,27.50
2019-03-21T01:31:10.557Z,26.80
2019-03-21T01:32:10.506Z,27.70
2019-03-21T01:33:10.517Z,27.80
2019-03-21T01:34:10.518Z,27.60
2019-03-21T01:35:10.526Z,27.70
2019-03-21T01:36:10.552Z,28.50
2019-03-21T01:37:10.590Z,28.20
2019-03-21T01:38:10.556Z,29.30
2019-03-21T01:39:10.582Z,29.00
2019-03-21T01:40:10.617Z,29.70
2019-03-21T01:41:10.562Z,29.20
2019-03-21T01:42:10.589Z,28.90
2019-03-21T01:43:10.604Z,30.20
2019-03-21T01:44:10.603Z,29.50
2019-03-21T01:45:10.592Z,31.70
2019-03-21T01:46:10.652Z,33.10
2019-03-21T01:47:10.601Z,35.30
2019-03-21T01:48:10.624Z,38.50
2019-03-21T01:49:10.599Z,33.30
2019-03-21T01:50:10.703Z,31.80
2019-03-21T01:51:10.687Z,30.90
2019-03-21T01:52:10.695Z,31.50
2019-03-21T01:53:10.661Z,30.80
2019-03-21T01:54:10.938Z,31.50
2019-03-21T01:55:11.532Z,33.00
2019-03-21T01:56:10.646Z,30.80
2019-03-21T01:57:10.686Z,31.00
2019-03-21T01:58:10.678Z,31.60
2019-03-21T01:59:10.701Z,30.90
2019-03-21T02:00:10.697Z,30.50
2019-03-21T02:01:10.720Z,30.60
2019-03-21T02:02:10.707Z,30.80
2019-03-21T02:03:10.723Z,30.70
2019-03-21T02:04:11.130Z,31.20
2019-03-21T02:05:10.714Z,30.90
2019-03-21T02:06:10.708Z,30.50
2019-03-21T02:07:10.789Z,29.60
2019-03-21T02:08:10.758Z,31.50
2019-03-21T02:09:10.770Z,31.00
2019-03-21T02:10:10.744Z,32.10
2019-03-21T02:11:10.779Z,29.70
2019-03-21T02:12:10.786Z,31.60
2019-03-21T02:13:10.859Z,31.30
2019-03-21T02:14:10.810Z,31.70
2019-03-21T02:15:10.763Z,30.20
2019-03-21T02:16:10.801Z,30.60
2019-03-21T02:17:10.775Z,30.70
2019-03-21T02:18:10.836Z,31.70
2019-03-21T02:19:10.795Z,30.30
2019-03-21T02:20:10.814Z,30.40
2019-03-21T02:21:10.817Z,29.70
2019-03-21T02:22:10.879Z,30.70
2019-03-21T02:23:10.824Z,29.40
2019-03-21T02:24:10.825Z,30.30
2019-03-21T02:25:10.853Z,30.60
2019-03-21T02:26:10.846Z,31.10
2019-03-21T02:27:10.887Z,30.80
2019-03-21T02:28:10.852Z,30.90
2019-03-21T02:29:10.914Z,29.30
2019-03-21T02:30:10.854Z,29.30
2019-03-21T02:31:10.864Z,29.70
2019-03-21T02:32:10.892Z,29.40
2019-03-21T02:33:10.940Z,29.40
2019-03-21T02:34:10.886Z,29.50
2019-03-21T02:35:10.904Z,29.00
2019-03-21T02:36:10.919Z,29.60
2019-03-21T02:37:10.936Z,29.50
2019-03-21T02:38:10.920Z,29.30
2019-03-21T02:39:10.967Z,30.00
2019-03-21T02:40:10.978Z,28.80
2019-03-21T02:41:10.939Z,29.50
2019-03-21T02:42:10.941Z,29.90
2019-03-21T02:43:10.979Z,30.00
2019-03-21T02:44:10.961Z,30.40
2019-03-21T02:45:10.973Z,30.60
2019-03-21T02:46:11.008Z,30.40
2019-03-21T02:47:10.987Z,30.50
2019-03-21T02:48:10.985Z,31.20
2019-03-21T02:49:10.997Z,29.70
2019-03-21T02:50:11.029Z,29.10
2019-03-21T02:51:11.034Z,28.70
2019-03-21T02:52:11.014Z,29.10
2019-03-21T02:53:11.013Z,29.20
2019-03-21T02:54:11.016Z,29.30
2019-03-21T02:55:11.066Z,28.80
2019-03-21T02:56:11.036Z,30.20
2019-03-21T02:57:11.042Z,29.70
2019-03-21T02:58:11.052Z,29.20
2019-03-21T02:59:11.062Z,30.10
2019-03-21T03:00:11.067Z,31.00
2019-03-21T03:01:11.116Z,29.80
2019-03-21T03:02:11.080Z,30.70
2019-03-21T03:03:11.071Z,30.30
2019-03-21T03:04:11.116Z,29.60
2019-03-21T03:05:11.088Z,30.50
2019-03-21T03:06:11.088Z,29.70
2019-03-21T03:07:11.111Z,30.50
2019-03-21T03:08:11.115Z,29.40
2019-03-21T03:09:11.115Z,29.60
2019-03-21T03:10:11.136Z,30.90
2019-03-21T03:11:11.253Z,30.60
2019-03-21T03:12:11.159Z,30.40
2019-03-21T03:13:11.171Z,31.30
2019-03-21T03:14:11.179Z,31.30
2019-03-21T03:15:21.870Z,30.20
2019-03-21T03:16:11.175Z,30.20
2019-03-21T03:17:11.164Z,31.00
2019-03-21T03:18:11.177Z,31.00
2019-03-21T03:19:11.189Z,31.00
2019-03-21T03:20:11.199Z,30.50
2019-03-21T03:21:11.185Z,30.00
2019-03-21T03:22:11.194Z,30.20
2019-03-21T03:23:11.203Z,31.50
2019-03-21T03:24:11.224Z,30.00
2019-03-21T03:25:11.212Z,30.60
2019-03-21T03:26:11.239Z,31.20
2019-03-21T03:27:11.259Z,30.30
2019-03-21T03:28:11.241Z,30.40
2019-03-21T03:29:11.282Z,31.00
2019-03-21T03:30:11.237Z,31.30
2019-03-21T03:31:11.286Z,29.80
2019-03-21T03:32:11.257Z,30.50
2019-03-21T03:33:11.265Z,30.80
2019-03-21T03:34:11.342Z,30.40
2019-03-21T03:35:11.295Z,29.80
2019-03-21T03:36:11.282Z,30.80
2019-03-21T03:37:11.280Z,29.40
2019-03-21T03:38:11.326Z,29.00
2019-03-21T03:39:11.297Z,29.80
2019-03-21T03:40:11.341Z,30.00
2019-03-21T03:41:11.325Z,30.20
2019-03-21T03:42:11.315Z,30.10
2019-03-21T03:43:11.343Z,29.90
2019-03-21T03:44:11.330Z,29.30
2019-03-21T03:45:11.350Z,32.60
2019-03-21T03:46:11.367Z,29.30
2019-03-21T03:47:11.358Z,29.70
2019-03-21T03:48:11.343Z,30.00
2019-03-21T03:49:11.362Z,29.20
2019-03-21T03:50:11.361Z,29.50
2019-03-21T03:51:11.416Z,29.10
2019-03-21T03:52:11.413Z,29.30
2019-03-21T03:53:11.377Z,28.60
2019-03-21T03:54:11.400Z,30.30
2019-03-21T03:55:11.386Z,29.80
2019-03-21T03:56:11.413Z,29.50
2019-03-21T03:57:11.438Z,30.20
2019-03-21T03:58:11.436Z,30.00
2019-03-21T03:59:11.418Z,29.90
2019-03-21T04:00:11.438Z,28.90
2019-03-21T04:01:11.433Z,28.60
2019-03-21T04:02:11.549Z,29.10
2019-03-21T04:03:11.441Z,29.20
2019-03-21T04:04:11.470Z,28.80
2019-03-21T04:05:11.464Z,28.40
2019-03-21T04:06:11.461Z,28.50
2019-03-21T05:59:41.971Z,28.80
2019-03-21T06:00:42.138Z,29.20
2019-03-21T06:01:42.016Z,29.10
2019-03-21T06:02:41.952Z,29.80
2019-03-21T06:03:41.941Z,29.30
2019-03-21T06:04:41.949Z,30.60
2019-03-21T06:05:41.962Z,29.40
2019-03-21T06:06:41.987Z,29.60
2019-03-21T06:07:41.977Z,29.10
2019-03-21T06:08:41.970Z,30.10
2019-03-21T06:09:41.986Z,28.80
2019-03-21T06:10:42.261Z,29.10
2019-03-21T06:11:41.993Z,30.20
2019-03-21T06:12:42.504Z,28.80
2019-03-21T06:13:42.833Z,31.10
2019-03-21T06:14:42.013Z,28.80
2019-03-21T06:15:42.007Z,29.70
2019-03-21T06:16:42.029Z,28.90
2019-03-21T06:17:42.083Z,30.00
2019-03-21T06:18:42.054Z,29.30
2019-03-21T06:19:42.030Z,28.90
2019-03-21T06:20:42.043Z,29.80
2019-03-21T06:21:42.122Z,30.00
2019-03-21T06:22:42.249Z,29.00
2019-03-21T06:23:42.055Z,29.90
2019-03-21T06:24:42.051Z,28.90
2019-03-21T06:25:42.093Z,29.30
2019-03-21T06:26:42.066Z,28.00
2019-03-21T06:27:42.164Z,28.90
2019-03-21T06:28:42.108Z,29.60
2019-03-21T06:29:42.132Z,28.70
2019-03-21T06:30:42.089Z,28.40
2019-03-21T06:31:42.110Z,28.90
2019-03-21T06:32:42.115Z,28.40
2019-03-21T06:33:42.203Z,29.10
2019-03-21T06:34:42.115Z,28.60
2019-03-21T06:35:42.133Z,29.70
2019-03-21T06:36:42.138Z,29.20
2019-03-21T06:37:42.340Z,28.30
2019-03-21T06:38:42.195Z,29.50
2019-03-21T06:39:42.191Z,28.00
2019-03-21T06:40:42.211Z,29.00
2019-03-21T06:41:42.196Z,28.50
2019-03-21T06:42:42.182Z,29.00
2019-03-21T06:43:42.179Z,28.00
2019-03-21T06:44:42.228Z,27.20
2019-03-21T06:45:47.962Z,29.60
2019-03-21T06:46:49.462Z,30.00
2019-03-21T06:47:42.226Z,31.50
2019-03-21T06:48:42.240Z,30.10
2019-03-21T06:49:42.239Z,28.60
2019-03-21T06:50:42.271Z,27.90
2019-03-21T06:51:42.247Z,27.80
2019-03-21T06:52:42.250Z,28.90
2019-03-21T06:53:42.257Z,28.20
2019-03-21T06:54:42.282Z,29.70
2019-03-21T06:55:42.268Z,27.20
2019-03-21T06:56:42.272Z,27.40
2019-03-21T06:57:42.288Z,25.80
2019-03-21T06:58:42.301Z,24.90
2019-03-21T06:59:42.287Z,26.70
2019-03-21T07:00:42.309Z,26.10
2019-03-21T07:01:42.340Z,26.40
2019-03-21T07:02:42.321Z,26.40
2019-03-21T07:03:42.316Z,26.30
2019-03-21T07:04:42.332Z,26.30
2019-03-21T07:05:42.348Z,26.10
2019-03-21T07:06:42.350Z,25.40
2019-03-21T07:07:42.348Z,25.60
2019-03-21T07:08:42.358Z,25.90
2019-03-21T07:09:42.382Z,25.60
2019-03-21T07:10:42.376Z,26.30
2019-03-21T07:11:42.374Z,25.50
2019-03-21T07:12:42.432Z,25.50
2019-03-21T07:13:42.391Z,25.00
2019-03-21T07:14:42.402Z,26.00
2019-03-21T07:15:42.391Z,26.10
2019-03-21T07:16:42.421Z,25.70
2019-03-21T07:17:42.443Z,26.90
2019-03-21T07:18:42.413Z,26.70
2019-03-21T07:19:42.439Z,25.80
2019-03-21T07:20:42.448Z,25.80
2019-03-21T07:21:42.436Z,26.60
2019-03-21T07:22:42.474Z,26.10
2019-03-21T07:23:42.508Z,26.20
2019-03-21T07:24:42.507Z,25.50
2019-03-21T07:25:42.464Z,27.10
2019-03-21T07:26:42.479Z,25.90
2019-03-21T07:27:42.482Z,24.90
2019-03-21T07:28:42.489Z,26.40
2019-03-21T07:29:42.499Z,25.40
2019-03-21T07:30:42.549Z,25.30
2019-03-21T07:31:42.505Z,25.80
2019-03-21T07:32:42.518Z,25.30
2019-03-21T07:33:42.528Z,25.60
2019-03-21T07:34:42.596Z,26.40
2019-03-21T07:35:42.586Z,25.40
2019-03-21T07:36:42.533Z,25.20
2019-03-21T07:37:42.556Z,25.60
2019-03-21T07:38:42.553Z,25.70
2019-03-21T07:39:42.609Z,25.00
2019-03-21T07:40:42.770Z,25.70
2019-03-21T07:41:42.612Z,25.90
2019-03-21T07:42:42.619Z,26.20
2019-03-21T07:43:42.587Z,26.70
2019-03-21T07:44:42.612Z,26.00
2019-03-21T07:45:42.613Z,25.60
2019-03-21T07:46:42.655Z,26.80
2019-03-21T07:47:42.617Z,27.00
2019-03-21T07:48:42.656Z,25.00
2019-03-21T07:49:42.638Z,27.00
2019-03-21T07:50:42.650Z,26.30
2019-03-21T07:51:45.041Z,27.00
2019-03-21T07:52:42.666Z,26.10
2019-03-21T07:53:42.653Z,25.80
2019-03-21T07:54:42.677Z,26.70
2019-03-21T07:55:42.703Z,25.40
2019-03-21T07:56:42.704Z,26.40
2019-03-21T07:57:42.709Z,26.00
2019-03-21T07:58:42.686Z,27.00
2019-03-21T07:59:42.693Z,26.50
2019-03-21T08:00:42.720Z,26.90
2019-03-21T08:01:42.708Z,27.20
2019-03-21T08:02:42.767Z,29.00
2019-03-21T08:03:42.738Z,27.30
2019-03-21T08:04:42.751Z,26.40
2019-03-21T08:05:42.775Z,27.60
2019-03-21T08:06:42.776Z,29.40
2019-03-21T08:07:42.759Z,29.40
2019-03-21T08:08:42.785Z,28.30
2019-03-21T08:09:42.870Z,28.90
2019-03-21T08:10:42.791Z,27.60
2019-03-21T08:11:42.815Z,29.70
2019-03-21T08:12:42.809Z,27.70
2019-03-21T08:13:42.846Z,27.50
2019-03-21T08:14:42.807Z,28.20
2019-03-21T08:15:42.817Z,27.60
2019-03-21T08:16:42.815Z,28.20
2019-03-21T08:17:42.842Z,28.40
2019-03-21T08:18:42.823Z,28.30
2019-03-21T08:19:42.862Z,29.00
2019-03-21T08:20:42.882Z,28.30
2019-03-21T08:21:42.910Z,28.20
2019-03-21T08:22:42.895Z,27.90
2019-03-21T08:23:42.901Z,27.10
2019-03-21T08:24:42.944Z,27.40
2019-03-21T08:25:42.909Z,30.80
2019-03-21T08:26:43.024Z,26.70
2019-03-21T08:27:42.917Z,27.60
2019-03-21T08:28:42.911Z,28.30
2019-03-21T08:29:42.929Z,27.90
2019-03-21T08:30:42.924Z,28.30
2019-03-21T08:31:42.990Z,27.20
2019-03-21T08:32:43.012Z,28.00
2019-03-21T08:33:42.960Z,27.40
2019-03-21T08:34:42.968Z,28.00
2019-03-21T08:35:42.961Z,27.90
2019-03-21T08:36:42.975Z,28.90
2019-03-21T08:37:43.022Z,27.90
2019-03-21T08:38:43.000Z,28.10
2019-03-21T08:39:42.995Z,27.20
2019-03-21T08:40:43.012Z,28.60
2019-03-21T08:41:43.003Z,25.90
2019-03-21T08:42:43.023Z,31.80
2019-03-21T08:43:43.032Z,27.20
2019-03-21T08:44:43.045Z,27.30
2019-03-21T08:45:43.037Z,27.70
2019-03-21T08:46:43.099Z,27.90
2019-03-21T08:47:43.053Z,27.20
2019-03-21T08:48:43.164Z,28.30
2019-03-21T08:49:43.103Z,27.40
2019-03-21T08:50:43.059Z,26.40
2019-03-21T08:51:43.243Z,26.40
2019-03-21T08:52:43.085Z,26.20
2019-03-21T08:53:43.138Z,26.00
2019-03-21T08:54:43.101Z,25.10
2019-03-21T08:55:43.088Z,26.70
2019-03-21T08:56:43.115Z,26.20
2019-03-21T08:57:43.128Z,27.00
2019-03-21T08:58:43.132Z,25.70
2019-03-21T08:59:43.122Z,25.50
2019-03-21T09:00:43.152Z,24.60
2019-03-21T09:01:43.153Z,25.30
2019-03-21T09:02:43.209Z,24.50
2019-03-21T09:03:43.202Z,24.80
2019-03-21T09:04:43.164Z,24.20
2019-03-21T09:05:43.178Z,25.80
2019-03-21T09:06:43.183Z,24.50
2019-03-21T09:07:43.181Z,25.30
2019-03-21T09:08:43.213Z,24.60
2019-03-21T09:09:43.212Z,24.80
2019-03-21T09:10:43.217Z,24.50
2019-03-21T09:11:43.219Z,24.40
2019-03-21T09:12:44.338Z,23.40
2019-03-21T09:13:43.277Z,25.80
2019-03-21T09:14:43.295Z,24.50
2019-03-21T09:15:43.251Z,24.40
2019-03-21T09:16:43.253Z,24.30
2019-03-21T09:17:43.303Z,23.70
2019-03-21T09:18:43.509Z,24.90
2019-03-21T09:19:43.374Z,23.70
2019-03-21T09:20:43.297Z,23.20
2019-03-21T09:21:43.335Z,22.00
2019-03-21T09:22:43.353Z,21.30
2019-03-21T09:23:43.310Z,22.90
2019-03-21T09:24:43.342Z,21.80
2019-03-21T09:25:43.325Z,20.80
2019-03-21T09:26:44.458Z,21.80
2019-03-21T09:27:43.363Z,21.90
2019-03-21T09:28:43.373Z,22.90
2019-03-21T09:29:53.204Z,21.40
2019-03-21T09:30:43.351Z,22.10
2019-03-21T09:31:43.393Z,21.80
2019-03-21T09:32:43.398Z,22.30
2019-03-21T09:33:43.395Z,21.80
2019-03-21T09:34:43.418Z,23.80
2019-03-21T09:35:43.417Z,21.20
2019-03-21T09:36:43.397Z,19.70
2019-03-21T09:37:43.445Z,18.90
2019-03-21T09:38:43.453Z,20.50
2019-03-21T09:39:43.507Z,19.90
2019-03-21T09:40:43.495Z,20.00
2019-03-21T09:41:43.447Z,21.00
2019-03-21T09:42:43.457Z,21.80
2019-03-21T09:43:43.491Z,21.10
2019-03-21T09:44:43.471Z,20.30
2019-03-21T09:45:43.497Z,20.10
2019-03-21T09:46:50.837Z,19.90
2019-03-21T09:47:43.521Z,20.00
2019-03-21T09:48:43.559Z,19.40
2019-03-21T09:49:43.526Z,19.30
2019-03-21T09:50:43.555Z,19.40
2019-03-21T09:51:43.534Z,19.10
2019-03-21T09:52:43.559Z,19.30
2019-03-21T09:53:43.543Z,19.40
2019-03-21T09:54:43.580Z,19.00
2019-03-21T09:55:43.558Z,19.40
2019-03-21T09:56:43.574Z,19.10
2019-03-21T09:57:43.592Z,19.80
2019-03-21T09:58:43.617Z,19.10
2019-03-21T09:59:43.627Z,19.80
2019-03-21T10:00:43.618Z,19.20
2019-03-21T10:01:43.614Z,19.10
2019-03-21T10:02:43.612Z,20.30
2019-03-21T10:03:43.625Z,20.40
2019-03-21T10:04:43.675Z,21.10
2019-03-21T10:05:43.662Z,21.40
2019-03-21T10:06:43.672Z,19.80
2019-03-21T10:07:43.683Z,19.40
2019-03-21T10:08:43.688Z,19.90
2019-03-21T10:09:43.696Z,20.30
2019-03-21T10:10:43.675Z,20.00
2019-03-21T10:11:43.757Z,20.30
2019-03-21T10:12:43.728Z,20.70
2019-03-21T10:13:43.723Z,20.40
2019-03-21T10:14:43.729Z,21.10
2019-03-21T10:15:43.734Z,20.20
2019-03-21T10:16:43.746Z,19.60
2019-03-21T10:17:43.780Z,20.00
2019-03-21T10:18:43.754Z,20.50
2019-03-21T10:19:43.764Z,21.00
2019-03-21T10:20:43.763Z,21.00
2019-03-21T10:21:43.929Z,20.20
2019-03-21T10:22:43.808Z,21.10
2019-03-21T10:23:44.263Z,20.80
2019-03-21T10:24:43.881Z,19.90
2019-03-21T10:25:43.796Z,20.70
2019-03-21T10:26:43.816Z,20.00
2019-03-21T10:27:43.809Z,22.30
2019-03-21T10:28:43.854Z,21.00
2019-03-21T10:29:43.960Z,20.30
2019-03-21T10:30:43.837Z,20.70
2019-03-21T10:31:43.858Z,20.10
2019-03-21T10:32:43.882Z,21.10
2019-03-21T10:33:43.877Z,21.10
2019-03-21T10:34:43.904Z,20.70
2019-03-21T10:35:43.871Z,20.90
2019-03-21T10:36:43.897Z,22.20
2019-03-21T10:37:43.914Z,22.40
2019-03-21T10:38:43.996Z,21.80
2019-03-21T10:39:44.720Z,21.60
2019-03-21T10:40:43.951Z,21.60
2019-03-21T10:41:44.276Z,21.80
2019-03-21T10:42:43.955Z,21.50
2019-03-21T10:43:44.013Z,21.90
2019-03-21T10:44:43.992Z,21.80
2019-03-21T10:45:43.965Z,21.70
2019-03-21T10:46:43.999Z,21.20
2019-03-21T10:47:43.994Z,22.30
2019-03-21T10:48:44.023Z,22.00
2019-03-21T10:49:44.009Z,21.60
2019-03-21T10:50:44.025Z,21.30
2019-03-21T10:51:54.512Z,20.80
2019-03-21T10:52:44.114Z,20.80
2019-03-21T10:53:44.060Z,20.90
2019-03-21T10:54:44.046Z,19.90
2019-03-21T10:55:44.111Z,22.30
2019-03-21T10:56:44.074Z,22.90
2019-03-21T10:57:44.141Z,19.50
2019-03-21T10:58:44.122Z,20.50
2019-03-21T10:59:44.090Z,19.40
2019-03-21T11:00:44.116Z,19.80
2019-03-21T11:01:44.153Z,20.70
2019-03-21T11:02:44.128Z,20.00
2019-03-21T11:03:44.120Z,19.30
2019-03-21T11:04:44.149Z,20.20
2019-03-21T11:05:44.130Z,20.40
2019-03-21T11:06:44.164Z,19.90
2019-03-21T11:07:44.242Z,20.10
2019-03-21T11:08:44.189Z,19.30
2019-03-21T11:09:44.213Z,20.40
2019-03-21T11:10:44.193Z,20.90
2019-03-21T11:11:44.220Z,20.40
2019-03-21T11:12:44.386Z,20.00
2019-03-21T11:13:44.235Z,19.80
2019-03-21T11:14:44.241Z,21.00
2019-03-21T11:15:44.236Z,20.40
2019-03-21T11:16:44.264Z,20.80
2019-03-21T11:17:44.259Z,20.10
2019-03-21T11:18:44.309Z,20.80
2019-03-21T11:19:44.263Z,19.10
2019-03-21T11:20:44.318Z,19.80
2019-03-21T11:21:44.279Z,20.10
2019-03-21T11:22:44.287Z,20.70
2019-03-21T11:23:44.302Z,20.70
2019-03-21T11:24:44.373Z,20.30
2019-03-21T11:25:44.309Z,20.40
2019-03-21T11:26:44.321Z,20.20
2019-03-21T11:27:44.397Z,20.40
2019-03-21T11:28:44.326Z,19.70
2019-03-21T11:29:44.347Z,20.40
2019-03-21T11:30:44.341Z,20.30
2019-03-21T11:31:44.407Z,19.50
2019-03-21T11:32:44.398Z,20.80
2019-03-21T11:33:44.376Z,20.30
2019-03-21T11:34:44.476Z,21.30
2019-03-21T11:35:44.386Z,22.40
2019-03-21T11:36:44.426Z,21.90
2019-03-21T11:37:44.439Z,21.60
2019-03-21T11:38:44.502Z,21.70
2019-03-21T11:39:44.455Z,20.30
2019-03-21T11:40:44.457Z,19.90
2019-03-21T11:41:44.467Z,20.30
2019-03-21T11:42:44.475Z,21.00
2019-03-21T11:43:44.481Z,20.00
2019-03-21T11:44:44.511Z,21.10
2019-03-21T11:45:44.553Z,20.60
2019-03-21T11:46:44.497Z,20.80
2019-03-21T11:47:44.517Z,20.30
2019-03-21T11:48:44.524Z,20.30
2019-03-21T11:49:44.536Z,23.00
2019-03-21T11:50:44.547Z,22.90
2019-03-21T11:51:44.595Z,21.40
2019-03-21T11:52:44.550Z,21.70
2019-03-21T11:53:44.555Z,20.10
2019-03-21T11:54:44.555Z,21.00
2019-03-21T11:55:44.579Z,20.40
2019-03-21T11:56:44.627Z,20.30
2019-03-21T11:57:44.589Z,19.80
2019-03-21T11:58:44.594Z,19.80
2019-03-21T11:59:51.598Z,20.30
2019-03-21T12:00:45.345Z,21.30
2019-03-21T12:01:44.667Z,21.70
2019-03-21T12:02:44.627Z,21.20
2019-03-21T12:03:44.661Z,20.90
2019-03-21T12:04:44.691Z,21.50
2019-03-21T12:05:44.676Z,21.00
2019-03-21T12:06:44.682Z,20.70
2019-03-21T12:07:44.700Z,20.90
2019-03-21T12:08:44.702Z,22.40
2019-03-21T12:09:44.711Z,21.60
2019-03-21T12:10:44.722Z,21.40
2019-03-21T12:11:44.725Z,21.70
2019-03-21T12:12:44.739Z,20.80
2019-03-21T12:13:44.724Z,20.80
2019-03-21T12:14:44.754Z,20.50
2019-03-21T12:15:44.757Z,21.10
2019-03-21T12:16:44.747Z,20.70
2019-03-21T12:17:44.799Z,20.40
2019-03-21T12:18:44.775Z,20.10
2019-03-21T12:19:44.780Z,20.60
2019-03-21T12:20:44.843Z,20.80
2019-03-21T12:21:44.803Z,20.40
2019-03-21T12:22:47.272Z,20.00
2019-03-21T12:23:44.809Z,18.20
2019-03-21T12:24:44.821Z,18.50
2019-03-21T12:25:44.872Z,19.70
2019-03-21T12:26:44.856Z,19.10
2019-03-21T12:27:44.839Z,18.70
2019-03-21T12:28:44.870Z,18.80
2019-03-21T12:29:44.886Z,18.50
2019-03-21T12:30:44.865Z,17.90
2019-03-21T12:31:44.911Z,19.30
2019-03-21T12:32:44.904Z,19.30
2019-03-21T12:33:44.885Z,18.70
2019-03-21T12:34:44.895Z,18.50
2019-03-21T12:35:44.926Z,18.90
2019-03-21T12:36:44.958Z,18.90
2019-03-21T12:37:44.957Z,19.20
2019-03-21T12:38:44.932Z,19.30
2019-03-21T12:39:44.974Z,21.00
2019-03-21T12:40:44.978Z,20.80
2019-03-21T12:41:45.017Z,21.60
2019-03-21T12:42:44.968Z,20.60
2019-03-21T12:43:45.018Z,21.20
2019-03-21T12:44:45.095Z,22.10
2019-03-21T12:45:45.016Z,21.60
2019-03-21T12:46:45.028Z,22.30
2019-03-21T12:47:45.037Z,21.20
2019-03-21T12:48:45.050Z,22.50
2019-03-21T12:49:45.062Z,21.40
2019-03-21T12:50:45.098Z,22.10
2019-03-21T12:51:45.989Z,23.10
2019-03-21T12:52:45.084Z,22.00
2019-03-21T12:53:45.077Z,22.50
2019-03-21T12:54:45.074Z,23.40
2019-03-21T12:55:45.112Z,23.40
2019-03-21T12:56:45.101Z,22.80
2019-03-21T12:57:45.245Z,22.70
2019-03-21T12:58:45.124Z,23.00
2019-03-21T12:59:45.129Z,24.50
2019-03-21T13:00:45.147Z,23.60
2019-03-21T13:01:45.226Z,23.30
2019-03-21T13:02:45.156Z,24.20
2019-03-21T13:03:45.155Z,23.90
2019-03-21T13:04:45.170Z,24.80
2019-03-21T13:05:45.171Z,24.10
2019-03-21T13:06:45.223Z,24.20
2019-03-21T13:07:45.191Z,24.20
2019-03-21T13:08:45.214Z,24.30
2019-03-21T13:09:45.204Z,24.90
2019-03-21T13:10:45.250Z,24.50
2019-03-21T13:11:45.297Z,23.90
2019-03-21T13:12:45.263Z,24.30
2019-03-21T13:13:45.295Z,25.00
2019-03-21T13:14:45.350Z,26.10
2019-03-21T13:15:45.271Z,27.10
2019-03-21T13:16:45.291Z,27.70
2019-03-21T13:17:45.295Z,25.60
2019-03-21T13:18:45.311Z,27.20
2019-03-21T13:19:45.329Z,26.90
2019-03-21T13:20:45.435Z,25.80
2019-03-21T13:21:45.353Z,25.00
2019-03-21T13:22:52.844Z,25.50
2019-03-21T13:23:45.344Z,24.80
2019-03-21T13:24:45.350Z,24.50
2019-03-21T13:25:45.408Z,24.50
2019-03-21T13:26:45.371Z,24.90
2019-03-21T13:27:45.373Z,26.90
2019-03-21T13:28:45.420Z,25.40
2019-03-21T13:29:45.383Z,25.50
2019-03-21T13:30:45.466Z,25.60
2019-03-21T13:31:45.440Z,25.10
2019-03-21T13:32:47.048Z,25.40
2019-03-21T13:33:45.483Z,25.30
2019-03-21T13:34:45.475Z,24.50
2019-03-21T13:35:45.465Z,24.70
2019-03-21T13:36:45.450Z,25.40
2019-03-21T13:37:45.483Z,25.40
2019-03-21T13:38:45.649Z,25.50
2019-03-21T13:39:45.509Z,25.00
2019-03-21T13:40:45.477Z,25.20
2019-03-21T13:41:45.491Z,26.60
2019-03-21T13:42:45.502Z,25.20
2019-03-21T13:43:45.549Z,26.40
2019-03-21T13:44:45.602Z,26.20
2019-03-21T13:45:45.559Z,26.00
2019-03-21T13:46:45.539Z,26.10
2019-03-21T13:47:45.604Z,26.20
2019-03-21T13:48:45.581Z,26.90
2019-03-21T13:49:45.591Z,26.10
2019-03-21T13:50:45.634Z,27.20
2019-03-21T13:51:45.596Z,27.90
2019-03-21T13:52:45.591Z,26.50
2019-03-21T13:53:45.604Z,27.20
2019-03-21T13:54:45.608Z,26.80
2019-03-21T13:55:45.623Z,27.10
2019-03-21T13:56:45.687Z,26.80
2019-03-21T13:57:45.639Z,27.70
2019-03-21T13:58:46.704Z,27.80
2019-03-21T13:59:45.701Z,26.50
2019-03-21T14:00:45.652Z,27.20
2019-03-21T14:01:45.714Z,27.40
2019-03-21T14:02:45.939Z,26.60
2019-03-21T14:03:45.689Z,25.80
2019-03-21T14:04:45.730Z,26.70
2019-03-21T14:05:45.703Z,26.40
2019-03-21T14:06:45.814Z,26.70
2019-03-21T14:07:45.754Z,25.90
2019-03-21T14:08:45.723Z,25.80
2019-03-21T14:09:45.752Z,25.90
2019-03-21T14:10:45.751Z,27.00
2019-03-21T14:11:45.747Z,27.40
2019-03-21T14:12:45.884Z,28.10
2019-03-21T14:13:45.824Z,27.80
2019-03-21T14:14:45.782Z,27.10
2019-03-21T14:15:45.803Z,26.90
2019-03-21T14:16:46.026Z,27.10
2019-03-21T14:17:45.872Z,28.30
2019-03-21T14:18:45.821Z,28.60
2019-03-21T14:19:45.826Z,27.80
2019-03-21T14:20:46.091Z,27.80
2019-03-21T14:21:45.846Z,29.10
2019-03-21T14:22:45.855Z,28.10
2019-03-21T14:23:45.870Z,28.60
2019-03-21T14:24:45.892Z,29.40
2019-03-21T14:25:45.879Z,29.90
2019-03-21T14:26:45.896Z,27.00
2019-03-21T14:27:45.889Z,26.40
2019-03-21T14:28:45.923Z,28.40
2019-03-21T14:29:45.906Z,27.10
2019-03-21T14:30:45.912Z,28.70
2019-03-21T14:31:45.933Z,26.10
2019-03-21T14:32:45.931Z,26.60
2019-03-21T14:33:45.979Z,26.20
2019-03-21T14:34:45.979Z,26.90
2019-03-21T14:35:45.967Z,26.90
2019-03-21T14:36:46.010Z,27.50
2019-03-21T14:37:46.121Z,27.90
2019-03-21T14:38:46.020Z,28.00
2019-03-21T14:39:46.018Z,27.40
2019-03-21T14:40:46.028Z,29.20
2019-03-21T14:41:46.027Z,27.30
2019-03-21T14:42:46.224Z,28.60
2019-03-21T14:43:46.023Z,27.70
2019-03-21T14:44:46.057Z,26.70